sensor_id;sensor_type;location;lat;lon;timestamp;pressure;altitude;pressure_sealevel;temperature;humidity
73085;BME280;62974;49.460;10.892;2022-12-29T00:00:11;97419.38;;;5.45;88.50
73085;BME280;62974;49.460;10.892;2022-12-29T00:02:38;97413.69;;;5.48;88.45
73085;BME280;62974;49.460;10.892;2022-12-29T00:05:08;97413.03;;;5.46;89.12
73085;BME280;62974;49.460;10.892;2022-12-29T00:07:36;97410.25;;;5.39;88.58
73085;BME280;62974;49.460;10.892;2022-12-29T00:10:06;97405.59;;;5.41;89.02
73085;BME280;62974;49.460;10.892;2022-12-29T00:12:34;97401.44;;;5.39;89.37
73085;BME280;62974;49.460;10.892;2022-12-29T00:15:15;97401.91;;;5.42;89.16
73085;BME280;62974;49.460;10.892;2022-12-29T00:18:00;97391.41;;;5.63;88.23
73085;BME280;62974;49.460;10.892;2022-12-29T00:20:33;97395.09;;;5.40;89.15
73085;BME280;62974;49.460;10.892;2022-12-29T00:23:17;97396.03;;;5.47;88.93
73085;BME280;62974;49.460;10.892;2022-12-29T00:26:03;97398.25;;;5.43;89.51
73085;BME280;62974;49.460;10.892;2022-12-29T00:28:50;97396.56;;;5.42;89.58
73085;BME280;62974;49.460;10.892;2022-12-29T00:31:35;97388.53;;;5.50;89.27
73085;BME280;62974;49.460;10.892;2022-12-29T00:34:20;97394.31;;;5.54;88.73
73085;BME280;62974;49.460;10.892;2022-12-29T00:37:07;97397.53;;;5.49;89.07
73085;BME280;62974;49.460;10.892;2022-12-29T00:39:34;97393.84;;;5.50;89.36
73085;BME280;62974;49.460;10.892;2022-12-29T00:42:19;97395.41;;;5.45;89.70
73085;BME280;62974;49.460;10.892;2022-12-29T00:45:05;97388.53;;;5.50;89.63
73085;BME280;62974;49.460;10.892;2022-12-29T00:47:33;97388.88;;;5.47;89.81
73085;BME280;62974;49.460;10.892;2022-12-29T00:50:00;97383.44;;;5.63;88.89
73085;BME280;62974;49.460;10.892;2022-12-29T00:52:28;97388.28;;;5.60;89.00
73085;BME280;62974;49.460;10.892;2022-12-29T00:54:55;97394.16;;;5.55;89.41
73085;BME280;62974;49.460;10.892;2022-12-29T00:57:23;97387.53;;;5.51;89.66
73085;BME280;62974;49.460;10.892;2022-12-29T00:59:50;97386.16;;;5.55;89.79
73085;BME280;62974;49.460;10.892;2022-12-29T01:02:18;97386.09;;;5.63;89.37
73085;BME280;62974;49.460;10.892;2022-12-29T01:04:45;97387.16;;;5.54;89.64
73085;BME280;62974;49.460;10.892;2022-12-29T01:07:13;97382.50;;;5.56;89.86
73085;BME280;62974;49.460;10.892;2022-12-29T01:09:44;97379.63;;;5.58;89.95
73085;BME280;62974;49.460;10.892;2022-12-29T01:12:30;97371.66;;;5.58;89.63
73085;BME280;62974;49.460;10.892;2022-12-29T01:15:11;97370.50;;;5.75;88.96
73085;BME280;62974;49.460;10.892;2022-12-29T01:17:39;97365.41;;;5.65;89.38
73085;BME280;62974;49.460;10.892;2022-12-29T01:20:08;97360.66;;;5.61;89.50
73085;BME280;62974;49.460;10.892;2022-12-29T01:22:36;97359.47;;;5.63;89.38
73085;BME280;62974;49.460;10.892;2022-12-29T01:25:06;97365.09;;;5.68;88.95
73085;BME280;62974;49.460;10.892;2022-12-29T01:27:34;97362.59;;;5.67;89.48
73085;BME280;62974;49.460;10.892;2022-12-29T01:30:02;97351.94;;;5.67;89.16
73085;BME280;62974;49.460;10.892;2022-12-29T01:32:30;97356.19;;;5.76;89.24
73085;BME280;62974;49.460;10.892;2022-12-29T01:34:57;97350.72;;;5.69;89.63
73085;BME280;62974;49.460;10.892;2022-12-29T01:37:25;97344.41;;;5.71;89.36
73085;BME280;62974;49.460;10.892;2022-12-29T01:39:53;97335.31;;;5.65;89.66
73085;BME280;62974;49.460;10.892;2022-12-29T01:42:24;97337.41;;;5.69;89.71
73085;BME280;62974;49.460;10.892;2022-12-29T01:44:54;97346.69;;;5.74;89.18
73085;BME280;62974;49.460;10.892;2022-12-29T01:47:27;97337.06;;;5.73;89.15
73085;BME280;62974;49.460;10.892;2022-12-29T01:49:59;97333.13;;;5.83;89.02
73085;BME280;62974;49.460;10.892;2022-12-29T01:52:32;97337.69;;;5.75;89.48
73085;BME280;62974;49.460;10.892;2022-12-29T01:55:02;97347.53;;;5.74;89.63
73085;BME280;62974;49.460;10.892;2022-12-29T01:57:34;97337.00;;;5.81;89.15
73085;BME280;62974;49.460;10.892;2022-12-29T02:00:07;97322.88;;;5.95;88.39
73085;BME280;62974;49.460;10.892;2022-12-29T02:02:35;97327.72;;;5.77;89.36
73085;BME280;62974;49.460;10.892;2022-12-29T02:05:05;97329.94;;;5.88;89.24
73085;BME280;62974;49.460;10.892;2022-12-29T02:07:34;97319.38;;;5.94;88.18
73085;BME280;62974;49.460;10.892;2022-12-29T02:10:03;97328.19;;;5.95;88.72
73085;BME280;62974;49.460;10.892;2022-12-29T02:12:32;97323.25;;;5.92;88.30
73085;BME280;62974;49.460;10.892;2022-12-29T02:15:01;97328.38;;;5.93;88.71
73085;BME280;62974;49.460;10.892;2022-12-29T02:17:41;97312.59;;;6.06;87.46
73085;BME280;62974;49.460;10.892;2022-12-29T02:20:29;97312.88;;;5.97;88.12
73085;BME280;62974;49.460;10.892;2022-12-29T02:23:18;97311.66;;;5.85;89.13
73085;BME280;62974;49.460;10.892;2022-12-29T02:26:22;97312.63;;;5.84;89.19
73085;BME280;62974;49.460;10.892;2022-12-29T02:31:52;97315.84;;;5.79;89.42
73085;BME280;62974;49.460;10.892;2022-12-29T02:34:29;97307.53;;;5.97;87.71
73085;BME280;62974;49.460;10.892;2022-12-29T02:37:03;97315.47;;;5.82;89.02
73085;BME280;62974;49.460;10.892;2022-12-29T02:39:36;97310.13;;;6.05;87.78
73085;BME280;62974;49.460;10.892;2022-12-29T02:42:10;97305.97;;;6.02;87.28
73085;BME280;62974;49.460;10.892;2022-12-29T02:44:50;97314.72;;;5.96;87.71
73085;BME280;62974;49.460;10.892;2022-12-29T02:47:26;97310.28;;;6.03;87.24
73085;BME280;62974;49.460;10.892;2022-12-29T02:50:00;97317.63;;;5.87;88.56
73085;BME280;62974;49.460;10.892;2022-12-29T02:52:31;97310.59;;;5.86;88.84
73085;BME280;62974;49.460;10.892;2022-12-29T02:55:01;97306.72;;;5.96;87.75
73085;BME280;62974;49.460;10.892;2022-12-29T02:57:30;97309.78;;;5.85;88.41
73085;BME280;62974;49.460;10.892;2022-12-29T03:00:02;97317.13;;;5.83;88.59
73085;BME280;62974;49.460;10.892;2022-12-29T03:02:44;97322.19;;;5.78;89.11
73085;BME280;62974;49.460;10.892;2022-12-29T03:05:22;97309.69;;;5.79;89.21
73085;BME280;62974;49.460;10.892;2022-12-29T03:08:01;97302.91;;;5.76;89.53
73085;BME280;62974;49.460;10.892;2022-12-29T03:10:38;97300.03;;;5.78;89.02
73085;BME280;62974;49.460;10.892;2022-12-29T03:13:13;97302.06;;;5.76;89.50
73085;BME280;62974;49.460;10.892;2022-12-29T03:16:07;97299.41;;;5.76;89.67
73085;BME280;62974;49.460;10.892;2022-12-29T03:18:47;97289.88;;;5.81;88.85
73085;BME280;62974;49.460;10.892;2022-12-29T03:21:22;97294.81;;;5.84;88.40
73085;BME280;62974;49.460;10.892;2022-12-29T03:24:13;97291.25;;;5.77;88.92
73085;BME280;62974;49.460;10.892;2022-12-29T03:26:42;97285.72;;;5.79;89.07
73085;BME280;62974;49.460;10.892;2022-12-29T03:29:12;97279.56;;;5.78;88.83
73085;BME280;62974;49.460;10.892;2022-12-29T03:31:42;97285.81;;;5.85;88.27
73085;BME280;62974;49.460;10.892;2022-12-29T03:34:11;97291.69;;;5.81;88.84
73085;BME280;62974;49.460;10.892;2022-12-29T03:36:44;97282.06;;;5.80;89.43
73085;BME280;62974;49.460;10.892;2022-12-29T03:39:14;97283.25;;;5.77;89.07
73085;BME280;62974;49.460;10.892;2022-12-29T03:41:43;97284.06;;;5.78;89.04
73085;BME280;62974;49.460;10.892;2022-12-29T03:44:13;97277.25;;;5.75;89.58
73085;BME280;62974;49.460;10.892;2022-12-29T03:46:40;97282.22;;;5.78;89.48
73085;BME280;62974;49.460;10.892;2022-12-29T03:49:08;97289.97;;;5.73;89.60
73085;BME280;62974;49.460;10.892;2022-12-29T03:51:37;97286.25;;;5.74;89.41
73085;BME280;62974;49.460;10.892;2022-12-29T03:54:04;97280.59;;;5.77;89.31
73085;BME280;62974;49.460;10.892;2022-12-29T03:56:32;97282.22;;;5.78;89.01
73085;BME280;62974;49.460;10.892;2022-12-29T03:59:00;97284.81;;;5.86;88.27
73085;BME280;62974;49.460;10.892;2022-12-29T04:01:27;97275.06;;;5.79;88.85
73085;BME280;62974;49.460;10.892;2022-12-29T04:03:55;97280.22;;;5.80;89.08
73085;BME280;62974;49.460;10.892;2022-12-29T04:06:22;97276.66;;;6.02;87.69
73085;BME280;62974;49.460;10.892;2022-12-29T04:08:52;97277.09;;;5.77;89.01
73085;BME280;62974;49.460;10.892;2022-12-29T04:11:19;97294.25;;;5.74;89.29
73085;BME280;62974;49.460;10.892;2022-12-29T04:13:47;97283.13;;;5.71;89.35
73085;BME280;62974;49.460;10.892;2022-12-29T04:16:14;97282.44;;;5.77;89.15
73085;BME280;62974;49.460;10.892;2022-12-29T04:18:42;97294.63;;;5.71;88.95
73085;BME280;62974;49.460;10.892;2022-12-29T04:21:09;97296.47;;;5.71;88.87
73085;BME280;62974;49.460;10.892;2022-12-29T04:23:38;97298.28;;;5.70;89.32
73085;BME280;62974;49.460;10.892;2022-12-29T04:26:07;97291.41;;;5.76;88.42
73085;BME280;62974;49.460;10.892;2022-12-29T04:28:35;97293.63;;;5.72;89.00
73085;BME280;62974;49.460;10.892;2022-12-29T04:31:04;97295.63;;;5.70;89.00
73085;BME280;62974;49.460;10.892;2022-12-29T04:33:32;97291.59;;;5.74;88.89
73085;BME280;62974;49.460;10.892;2022-12-29T04:36:00;97290.97;;;5.72;88.86
73085;BME280;62974;49.460;10.892;2022-12-29T04:38:28;97288.09;;;5.74;88.66
73085;BME280;62974;49.460;10.892;2022-12-29T04:40:58;97289.66;;;5.68;89.56
73085;BME280;62974;49.460;10.892;2022-12-29T04:43:27;97291.97;;;5.71;89.36
73085;BME280;62974;49.460;10.892;2022-12-29T04:45:55;97281.31;;;5.71;88.90
73085;BME280;62974;49.460;10.892;2022-12-29T04:48:22;97286.19;;;5.67;88.75
73085;BME280;62974;49.460;10.892;2022-12-29T04:50:50;97281.38;;;5.63;88.68
73085;BME280;62974;49.460;10.892;2022-12-29T04:53:18;97286.09;;;5.61;89.12
73085;BME280;62974;49.460;10.892;2022-12-29T04:55:48;97288.09;;;5.59;88.63
73085;BME280;62974;49.460;10.892;2022-12-29T04:58:16;97284.78;;;5.57;89.07
73085;BME280;62974;49.460;10.892;2022-12-29T05:00:49;97277.44;;;5.59;88.80
73085;BME280;62974;49.460;10.892;2022-12-29T05:03:17;97279.47;;;5.57;88.93
73085;BME280;62974;49.460;10.892;2022-12-29T05:05:47;97289.00;;;5.51;89.34
73085;BME280;62974;49.460;10.892;2022-12-29T05:08:14;97291.13;;;5.56;89.33
73085;BME280;62974;49.460;10.892;2022-12-29T05:10:44;97292.22;;;5.61;88.61
73085;BME280;62974;49.460;10.892;2022-12-29T05:13:12;97299.03;;;5.64;88.69
73085;BME280;62974;49.460;10.892;2022-12-29T05:15:40;97295.28;;;5.73;87.60
73085;BME280;62974;49.460;10.892;2022-12-29T05:18:09;97292.03;;;5.63;88.98
73085;BME280;62974;49.460;10.892;2022-12-29T05:20:36;97292.03;;;5.63;89.25
73085;BME280;62974;49.460;10.892;2022-12-29T05:23:04;97291.03;;;5.64;88.55
73085;BME280;62974;49.460;10.892;2022-12-29T05:25:31;97293.41;;;5.59;89.17
73085;BME280;62974;49.460;10.892;2022-12-29T05:27:59;97283.06;;;5.64;88.46
73085;BME280;62974;49.460;10.892;2022-12-29T05:30:26;97273.78;;;5.60;88.55
73085;BME280;62974;49.460;10.892;2022-12-29T05:32:54;97273.47;;;5.55;88.98
73085;BME280;62974;49.460;10.892;2022-12-29T05:35:22;97273.47;;;5.55;88.87
73085;BME280;62974;49.460;10.892;2022-12-29T05:37:50;97274.31;;;5.55;88.63
73085;BME280;62974;49.460;10.892;2022-12-29T05:40:17;97277.34;;;5.52;88.63
73085;BME280;62974;49.460;10.892;2022-12-29T05:42:45;97264.88;;;5.53;88.68
73085;BME280;62974;49.460;10.892;2022-12-29T05:45:12;97265.56;;;5.47;88.50
73085;BME280;62974;49.460;10.892;2022-12-29T05:47:40;97272.94;;;5.45;88.80
73085;BME280;62974;49.460;10.892;2022-12-29T05:50:07;97271.91;;;5.46;88.86
73085;BME280;62974;49.460;10.892;2022-12-29T05:52:36;97290.91;;;5.43;88.57
73085;BME280;62974;49.460;10.892;2022-12-29T05:55:05;97293.56;;;5.43;88.89
73085;BME280;62974;49.460;10.892;2022-12-29T05:57:32;97294.41;;;5.43;89.21
73085;BME280;62974;49.460;10.892;2022-12-29T06:00:00;97292.41;;;5.45;89.17
73085;BME280;62974;49.460;10.892;2022-12-29T06:02:28;97286.25;;;5.45;88.71
73085;BME280;62974;49.460;10.892;2022-12-29T06:04:55;97277.97;;;5.40;88.38
73085;BME280;62974;49.460;10.892;2022-12-29T06:07:23;97280.47;;;5.41;88.82
73085;BME280;62974;49.460;10.892;2022-12-29T06:09:52;97286.78;;;5.40;88.09
73085;BME280;62974;49.460;10.892;2022-12-29T06:12:22;97284.28;;;5.39;88.49
73085;BME280;62974;49.460;10.892;2022-12-29T06:14:50;97279.78;;;5.39;88.66
73085;BME280;62974;49.460;10.892;2022-12-29T06:17:17;97267.78;;;5.43;87.91
73085;BME280;62974;49.460;10.892;2022-12-29T06:19:45;97275.31;;;5.40;87.68
73085;BME280;62974;49.460;10.892;2022-12-29T06:22:12;97262.16;;;5.38;87.75
73085;BME280;62974;49.460;10.892;2022-12-29T06:24:40;97254.16;;;5.38;87.45
73085;BME280;62974;49.460;10.892;2022-12-29T06:27:09;97256.28;;;5.43;87.19
73085;BME280;62974;49.460;10.892;2022-12-29T06:29:36;97251.16;;;5.41;87.66
73085;BME280;62974;49.460;10.892;2022-12-29T06:32:07;97253.00;;;5.55;86.35
73085;BME280;62974;49.460;10.892;2022-12-29T06:34:34;97259.31;;;5.40;87.67
73085;BME280;62974;49.460;10.892;2022-12-29T06:37:02;97263.66;;;5.41;87.24
73085;BME280;62974;49.460;10.892;2022-12-29T06:39:29;97277.53;;;5.51;86.93
73085;BME280;62974;49.460;10.892;2022-12-29T06:41:57;97282.56;;;5.46;86.27
73085;BME280;62974;49.460;10.892;2022-12-29T06:44:26;97270.72;;;5.48;86.63
73085;BME280;62974;49.460;10.892;2022-12-29T06:46:53;97286.03;;;5.46;86.64
73085;BME280;62974;49.460;10.892;2022-12-29T06:49:21;97284.22;;;5.47;86.48
73085;BME280;62974;49.460;10.892;2022-12-29T06:51:48;97293.88;;;5.48;86.28
73085;BME280;62974;49.460;10.892;2022-12-29T06:54:15;97283.66;;;5.37;87.26
73085;BME280;62974;49.460;10.892;2022-12-29T06:56:43;97281.91;;;5.44;86.41
73085;BME280;62974;49.460;10.892;2022-12-29T06:59:10;97282.56;;;5.46;86.65
73085;BME280;62974;49.460;10.892;2022-12-29T07:01:39;97280.84;;;5.53;85.51
73085;BME280;62974;49.460;10.892;2022-12-29T07:04:07;97288.06;;;5.44;87.21
73085;BME280;62974;49.460;10.892;2022-12-29T07:06:34;97297.22;;;5.42;86.82
73085;BME280;62974;49.460;10.892;2022-12-29T07:09:02;97285.22;;;5.46;86.63
73085;BME280;62974;49.460;10.892;2022-12-29T07:11:29;97291.13;;;5.56;86.15
73085;BME280;62974;49.460;10.892;2022-12-29T07:13:57;97287.16;;;5.52;87.08
73085;BME280;62974;49.460;10.892;2022-12-29T07:16:30;97296.16;;;5.51;86.77
73085;BME280;62974;49.460;10.892;2022-12-29T07:18:58;97302.16;;;5.53;86.77
73085;BME280;62974;49.460;10.892;2022-12-29T07:21:26;97303.63;;;5.70;85.96
73085;BME280;62974;49.460;10.892;2022-12-29T07:23:53;97309.16;;;5.68;86.66
73085;BME280;62974;49.460;10.892;2022-12-29T07:26:21;97314.28;;;5.70;86.06
73085;BME280;62974;49.460;10.892;2022-12-29T07:28:49;97307.84;;;5.64;86.59
73085;BME280;62974;49.460;10.892;2022-12-29T07:31:18;97305.66;;;5.68;86.55
73085;BME280;62974;49.460;10.892;2022-12-29T07:33:46;97300.13;;;5.69;86.16
73085;BME280;62974;49.460;10.892;2022-12-29T07:36:16;97298.75;;;5.74;85.90
73085;BME280;62974;49.460;10.892;2022-12-29T07:38:44;97294.69;;;6.00;84.32
73085;BME280;62974;49.460;10.892;2022-12-29T07:41:11;97300.41;;;5.75;85.99
73085;BME280;62974;49.460;10.892;2022-12-29T07:43:39;97302.38;;;5.95;85.07
73085;BME280;62974;49.460;10.892;2022-12-29T07:46:06;97297.31;;;6.15;83.38
73085;BME280;62974;49.460;10.892;2022-12-29T07:48:55;97301.72;;;5.93;84.88
73085;BME280;62974;49.460;10.892;2022-12-29T07:51:23;97294.81;;;5.84;85.71
73085;BME280;62974;49.460;10.892;2022-12-29T07:53:51;97296.16;;;5.88;85.24
73085;BME280;62974;49.460;10.892;2022-12-29T07:56:18;97297.97;;;5.88;85.24
73085;BME280;62974;49.460;10.892;2022-12-29T07:58:46;97281.88;;;6.10;82.97
73085;BME280;62974;49.460;10.892;2022-12-29T08:01:13;97297.78;;;6.04;83.30
73085;BME280;62974;49.460;10.892;2022-12-29T08:03:41;97289.69;;;5.97;84.60
73085;BME280;62974;49.460;10.892;2022-12-29T08:06:09;97296.78;;;5.90;84.87
73085;BME280;62974;49.460;10.892;2022-12-29T08:08:38;97305.50;;;5.99;84.21
73085;BME280;62974;49.460;10.892;2022-12-29T08:11:05;97303.00;;;5.97;84.97
73085;BME280;62974;49.460;10.892;2022-12-29T08:13:33;97304.31;;;6.01;85.10
73085;BME280;62974;49.460;10.892;2022-12-29T08:16:00;97300.25;;;6.05;85.04
73085;BME280;62974;49.460;10.892;2022-12-29T08:18:27;97305.31;;;6.15;84.14
73085;BME280;62974;49.460;10.892;2022-12-29T08:20:55;97303.09;;;6.19;84.49
73085;BME280;62974;49.460;10.892;2022-12-29T08:23:22;97297.50;;;6.13;84.75
73085;BME280;62974;49.460;10.892;2022-12-29T08:25:57;97288.84;;;6.26;84.44
73085;BME280;62974;49.460;10.892;2022-12-29T08:28:25;97296.75;;;6.34;83.78
73085;BME280;62974;49.460;10.892;2022-12-29T08:30:53;97293.06;;;6.35;83.81
73085;BME280;62974;49.460;10.892;2022-12-29T08:33:21;97299.63;;;6.33;83.92
73085;BME280;62974;49.460;10.892;2022-12-29T08:35:49;97301.81;;;6.29;84.56
73085;BME280;62974;49.460;10.892;2022-12-29T08:38:16;97297.84;;;6.40;83.83
73085;BME280;62974;49.460;10.892;2022-12-29T08:40:44;97312.63;;;6.42;83.66
73085;BME280;62974;49.460;10.892;2022-12-29T08:43:13;97317.88;;;6.50;83.72
73085;BME280;62974;49.460;10.892;2022-12-29T08:45:44;97316.66;;;6.53;83.72
73085;BME280;62974;49.460;10.892;2022-12-29T08:48:11;97311.91;;;6.48;84.66
73085;BME280;62974;49.460;10.892;2022-12-29T08:50:42;97317.03;;;6.65;83.79
73085;BME280;62974;49.460;10.892;2022-12-29T08:53:10;97313.31;;;6.80;83.23
73085;BME280;62974;49.460;10.892;2022-12-29T08:55:37;97312.69;;;6.64;84.15
73085;BME280;62974;49.460;10.892;2022-12-29T08:58:05;97321.44;;;6.57;84.58
73085;BME280;62974;49.460;10.892;2022-12-29T09:00:34;97321.09;;;6.60;84.66
73085;BME280;62974;49.460;10.892;2022-12-29T09:03:01;97325.81;;;7.01;82.01
73085;BME280;62974;49.460;10.892;2022-12-29T09:05:29;97320.47;;;6.80;84.07
73085;BME280;62974;49.460;10.892;2022-12-29T09:07:56;97319.59;;;6.73;84.83
73085;BME280;62974;49.460;10.892;2022-12-29T09:10:24;97319.44;;;6.81;84.74
73085;BME280;62974;49.460;10.892;2022-12-29T09:12:52;97323.25;;;6.93;83.54
73085;BME280;62974;49.460;10.892;2022-12-29T09:15:19;97317.69;;;6.88;84.25
73085;BME280;62974;49.460;10.892;2022-12-29T09:17:48;97328.75;;;7.06;84.65
73085;BME280;62974;49.460;10.892;2022-12-29T09:20:16;97321.69;;;6.98;84.67
73085;BME280;62974;49.460;10.892;2022-12-29T09:22:45;97328.69;;;6.99;84.75
73085;BME280;62974;49.460;10.892;2022-12-29T09:25:13;97324.63;;;7.03;84.13
73085;BME280;62974;49.460;10.892;2022-12-29T09:27:41;97326.28;;;7.04;84.44
73085;BME280;62974;49.460;10.892;2022-12-29T09:30:11;97329.19;;;7.09;84.49
73085;BME280;62974;49.460;10.892;2022-12-29T09:32:40;97330.59;;;7.05;84.60
73085;BME280;62974;49.460;10.892;2022-12-29T09:35:12;97332.31;;;7.13;84.24
73085;BME280;62974;49.460;10.892;2022-12-29T09:37:40;97329.78;;;7.26;83.40
73085;BME280;62974;49.460;10.892;2022-12-29T09:40:21;97327.56;;;7.57;82.53
73085;BME280;62974;49.460;10.892;2022-12-29T09:43:05;97325.22;;;7.20;84.36
73085;BME280;62974;49.460;10.892;2022-12-29T09:45:40;97327.28;;;7.25;84.35
73085;BME280;62974;49.460;10.892;2022-12-29T09:48:14;97318.22;;;7.19;84.85
73085;BME280;62974;49.460;10.892;2022-12-29T09:50:47;97314.13;;;7.23;84.66
73085;BME280;62974;49.460;10.892;2022-12-29T09:53:20;97313.81;;;7.33;85.31
73085;BME280;62974;49.460;10.892;2022-12-29T09:55:51;97295.88;;;7.27;84.67
73085;BME280;62974;49.460;10.892;2022-12-29T09:58:24;97312.78;;;7.34;84.23
73085;BME280;62974;49.460;10.892;2022-12-29T10:00:59;97305.06;;;7.45;83.76
73085;BME280;62974;49.460;10.892;2022-12-29T10:03:40;97311.13;;;7.33;84.64
73085;BME280;62974;49.460;10.892;2022-12-29T10:06:14;97306.06;;;7.66;82.94
73085;BME280;62974;49.460;10.892;2022-12-29T10:08:49;97300.91;;;7.36;84.65
73085;BME280;62974;49.460;10.892;2022-12-29T10:11:29;97309.09;;;7.35;85.22
73085;BME280;62974;49.460;10.892;2022-12-29T10:14:12;97305.88;;;7.39;84.94
73085;BME280;62974;49.460;10.892;2022-12-29T10:16:52;97302.19;;;7.40;85.09
73085;BME280;62974;49.460;10.892;2022-12-29T10:19:43;97300.00;;;7.50;84.38
73085;BME280;62974;49.460;10.892;2022-12-29T10:22:23;97286.06;;;7.55;83.95
73085;BME280;62974;49.460;10.892;2022-12-29T10:24:54;97302.22;;;7.47;84.44
73085;BME280;62974;49.460;10.892;2022-12-29T10:27:23;97302.13;;;7.62;84.79
73085;BME280;62974;49.460;10.892;2022-12-29T10:29:55;97283.00;;;7.58;84.79
73085;BME280;62974;49.460;10.892;2022-12-29T10:32:29;97290.59;;;7.61;85.14
73085;BME280;62974;49.460;10.892;2022-12-29T10:35:05;97287.09;;;7.61;85.57
73085;BME280;62974;49.460;10.892;2022-12-29T10:37:41;97277.22;;;7.89;84.44
73085;BME280;62974;49.460;10.892;2022-12-29T10:40:18;97280.28;;;7.79;84.71
73085;BME280;62974;49.460;10.892;2022-12-29T10:42:50;97274.44;;;7.69;85.60
73085;BME280;62974;49.460;10.892;2022-12-29T10:45:22;97262.59;;;7.85;85.20
73085;BME280;62974;49.460;10.892;2022-12-29T10:47:54;97263.25;;;7.87;84.80
73085;BME280;62974;49.460;10.892;2022-12-29T10:50:24;97257.22;;;7.78;85.06
73085;BME280;62974;49.460;10.892;2022-12-29T10:52:54;97257.31;;;7.91;84.77
73085;BME280;62974;49.460;10.892;2022-12-29T10:55:27;97248.25;;;7.92;84.46
73085;BME280;62974;49.460;10.892;2022-12-29T10:58:00;97239.13;;;8.62;82.01
73085;BME280;62974;49.460;10.892;2022-12-29T11:00:31;97240.56;;;8.17;83.21
73085;BME280;62974;49.460;10.892;2022-12-29T11:03:10;97230.94;;;8.23;84.12
73085;BME280;62974;49.460;10.892;2022-12-29T11:05:47;97251.84;;;8.06;84.53
73085;BME280;62974;49.460;10.892;2022-12-29T11:08:20;97257.59;;;8.10;84.65
73085;BME280;62974;49.460;10.892;2022-12-29T11:10:58;97240.78;;;8.16;84.57
73085;BME280;62974;49.460;10.892;2022-12-29T11:13:27;97252.03;;;8.39;83.06
73085;BME280;62974;49.460;10.892;2022-12-29T11:16:04;97256.03;;;8.28;83.93
73085;BME280;62974;49.460;10.892;2022-12-29T11:18:34;97261.03;;;8.31;84.46
73085;BME280;62974;49.460;10.892;2022-12-29T11:21:04;97260.25;;;8.44;84.18
73085;BME280;62974;49.460;10.892;2022-12-29T11:23:36;97262.00;;;8.24;84.72
73085;BME280;62974;49.460;10.892;2022-12-29T11:26:16;97254.69;;;8.39;83.94
73085;BME280;62974;49.460;10.892;2022-12-29T11:28:45;97250.28;;;8.79;82.72
73085;BME280;62974;49.460;10.892;2022-12-29T11:31:16;97258.97;;;8.33;84.70
73085;BME280;62974;49.460;10.892;2022-12-29T11:33:45;97259.28;;;8.58;84.30
73085;BME280;62974;49.460;10.892;2022-12-29T11:36:16;97247.69;;;8.44;83.90
73085;BME280;62974;49.460;10.892;2022-12-29T11:38:49;97258.63;;;8.43;85.11
73085;BME280;62974;49.460;10.892;2022-12-29T11:41:22;97266.06;;;8.54;85.54
73085;BME280;62974;49.460;10.892;2022-12-29T11:43:52;97267.50;;;8.50;85.72
73085;BME280;62974;49.460;10.892;2022-12-29T11:46:22;97265.84;;;8.49;85.28
73085;BME280;62974;49.460;10.892;2022-12-29T11:48:51;97271.41;;;8.54;85.40
73085;BME280;62974;49.460;10.892;2022-12-29T11:51:23;97266.66;;;8.56;85.17
73085;BME280;62974;49.460;10.892;2022-12-29T11:53:56;97258.72;;;8.89;83.86
73085;BME280;62974;49.460;10.892;2022-12-29T11:56:34;97259.28;;;8.58;85.51
73085;BME280;62974;49.460;10.892;2022-12-29T11:59:36;97267.56;;;8.70;85.33
73085;BME280;62974;49.460;10.892;2022-12-29T12:02:30;97263.38;;;8.47;86.44
73085;BME280;62974;49.460;10.892;2022-12-29T12:05:16;97250.25;;;8.66;85.93
73085;BME280;62974;49.460;10.892;2022-12-29T12:07:50;97259.56;;;8.89;84.98
73085;BME280;62974;49.460;10.892;2022-12-29T12:10:24;97253.59;;;8.94;84.26
73085;BME280;62974;49.460;10.892;2022-12-29T12:13:02;97264.88;;;8.70;85.66
73085;BME280;62974;49.460;10.892;2022-12-29T12:15:35;97264.72;;;8.91;84.88
73085;BME280;62974;49.460;10.892;2022-12-29T12:18:15;97251.13;;;8.92;83.83
73085;BME280;62974;49.460;10.892;2022-12-29T12:20:46;97255.03;;;8.83;84.91
73085;BME280;62974;49.460;10.892;2022-12-29T12:23:25;97268.22;;;8.91;84.29
73085;BME280;62974;49.460;10.892;2022-12-29T12:26:00;97264.28;;;8.81;85.51
73085;BME280;62974;49.460;10.892;2022-12-29T12:28:36;97256.28;;;8.94;84.99
73085;BME280;62974;49.460;10.892;2022-12-29T12:31:11;97263.69;;;8.85;86.03
73085;BME280;62974;49.460;10.892;2022-12-29T12:33:44;97277.13;;;9.38;84.48
73085;BME280;62974;49.460;10.892;2022-12-29T12:36:25;97283.44;;;8.84;87.05
73085;BME280;62974;49.460;10.892;2022-12-29T12:39:00;97286.09;;;8.78;87.12
73085;BME280;62974;49.460;10.892;2022-12-29T12:41:39;97287.78;;;8.85;88.50
73085;BME280;62974;49.460;10.892;2022-12-29T12:44:15;97278.69;;;8.80;87.63
73085;BME280;62974;49.460;10.892;2022-12-29T12:47:02;97284.69;;;8.82;87.52
73085;BME280;62974;49.460;10.892;2022-12-29T12:52:08;97271.47;;;8.74;89.07
73085;BME280;62974;49.460;10.892;2022-12-29T12:54:52;97265.75;;;8.83;89.64
73085;BME280;62974;49.460;10.892;2022-12-29T12:57:33;97263.31;;;9.21;88.84
73085;BME280;62974;49.460;10.892;2022-12-29T13:00:09;97271.09;;;8.90;89.40
73085;BME280;62974;49.460;10.892;2022-12-29T13:02:49;97278.53;;;8.94;88.88
73085;BME280;62974;49.460;10.892;2022-12-29T13:05:31;97276.66;;;8.88;88.84
73085;BME280;62974;49.460;10.892;2022-12-29T13:08:19;97279.69;;;8.66;89.44
73085;BME280;62974;49.460;10.892;2022-12-29T13:10:52;97273.31;;;8.67;90.16
73085;BME280;62974;49.460;10.892;2022-12-29T13:13:48;97272.47;;;8.66;89.59
73085;BME280;62974;49.460;10.892;2022-12-29T13:16:28;97273.72;;;8.70;89.78
73085;BME280;62974;49.460;10.892;2022-12-29T13:19:02;97277.03;;;8.72;89.24
73085;BME280;62974;49.460;10.892;2022-12-29T13:21:40;97274.94;;;8.61;90.58
73085;BME280;62974;49.460;10.892;2022-12-29T13:24:26;97272.47;;;8.60;90.67
73085;BME280;62974;49.460;10.892;2022-12-29T13:27:01;97285.41;;;8.56;91.02
73085;BME280;62974;49.460;10.892;2022-12-29T13:29:36;97279.50;;;8.74;89.79